Time;durP1;ratioP1;P1;durP2;ratioP2;P2;SDS_P1;SDS_P2;PMS_P1;PMS_P2;Temp;Humidity;BMP_temperature;BMP_pressure;BME280_temperature;BME280_humidity;BME280_pressure;Samples;Min_cycle;Max_cycle;Signal;HPM_P1;HPM_P2
2023/09/21 00:01:34;;;;;;;4.30;3.07;;;13.90;99.90;13.20;99966;;;;587459;238;24107;-78
2023/09/21 00:04:03;;;;;;;3.40;3.03;;;13.90;99.90;13.30;99965;;;;586893;238;24069;-77
2023/09/21 00:06:30;;;;;;;4.53;3.23;;;13.90;99.90;13.30;99968;;;;586715;243;24104;-77
2023/09/21 00:08:59;;;;;;;5.07;3.17;;;14.00;99.90;13.30;99971;;;;586717;239;24055;-77
2023/09/21 00:11:26;;;;;;;2.90;2.67;;;13.90;99.90;13.30;99964;;;;586437;245;24085;-77
2023/09/21 00:13:55;;;;;;;4.00;2.93;;;13.90;99.90;13.30;99975;;;;587032;243;24080;-79
2023/09/21 00:16:25;;;;;;;4.60;3.93;;;14.00;99.90;13.30;99966;;;;586667;239;24094;-77
2023/09/21 00:18:50;;;;;;;4.87;3.70;;;14.00;99.90;13.30;99969;;;;586558;245;24055;-77
2023/09/21 00:21:18;;;;;;;3.27;2.97;;;14.00;99.90;13.30;99968;;;;586748;243;24067;-77
2023/09/21 00:23:47;;;;;;;4.70;3.33;;;14.00;99.90;13.40;99961;;;;586732;239;24075;-77
2023/09/21 00:26:14;;;;;;;3.83;3.27;;;14.00;99.90;13.40;99964;;;;574960;243;24105;-78
2023/09/21 00:28:43;;;;;;;3.53;2.80;;;14.00;99.90;13.40;99963;;;;575000;244;24104;-77
2023/09/21 00:31:10;;;;;;;4.53;3.10;;;14.10;99.90;13.50;99957;;;;586661;239;24092;-77
2023/09/21 00:33:39;;;;;;;5.00;3.33;;;14.10;99.90;13.50;99964;;;;586166;244;24059;-78
2023/09/21 00:36:10;;;;;;;4.33;2.87;;;14.20;99.90;13.60;99960;;;;585976;243;24066;-77
2023/09/21 00:38:34;;;;;;;2.97;2.70;;;14.20;99.90;13.60;99954;;;;576974;245;24065;-78
2023/09/21 00:41:03;;;;;;;5.57;3.30;;;14.20;99.90;13.60;99956;;;;585933;245;24114;-77
2023/09/21 00:43:30;;;;;;;4.40;3.60;;;14.20;99.90;13.60;99950;;;;586429;244;24084;-77
2023/09/21 00:45:59;;;;;;;3.90;3.53;;;14.30;99.90;13.60;99945;;;;586489;243;24052;-78
2023/09/21 00:48:33;;;;;;;4.93;3.70;;;14.20;99.90;13.60;99942;;;;577406;245;24074;-77
2023/09/21 00:50:56;;;;;;;3.47;3.17;;;14.20;99.90;13.60;99945;;;;576906;245;24054;-78
2023/09/21 00:53:27;;;;;;;3.20;2.80;;;14.20;99.90;13.50;99959;;;;577504;245;24125;-77
2023/09/21 00:55:53;;;;;;;4.73;3.13;;;14.20;99.90;13.50;99958;;;;578055;243;24086;-78
2023/09/21 00:58:24;;;;;;;4.37;3.30;;;14.20;99.90;13.50;99957;;;;577393;245;24069;-77
2023/09/21 01:00:54;;;;;;;6.10;3.67;;;14.10;99.90;13.50;99944;;;;577563;245;24047;-76
2023/09/21 01:03:20;;;;;;;5.63;3.50;;;14.10;99.90;13.40;99951;;;;585967;243;24058;-78
2023/09/21 01:05:50;;;;;;;3.37;2.87;;;14.00;99.90;13.30;99943;;;;586431;243;24085;-78
2023/09/21 01:08:18;;;;;;;7.97;3.63;;;14.00;99.90;13.20;99944;;;;586816;239;24057;-78
2023/09/21 01:10:49;;;;;;;3.83;3.50;;;13.80;99.90;13.20;99941;;;;578735;245;25201;-76
2023/09/21 01:13:15;;;;;;;4.73;3.40;;;13.80;99.90;13.10;99942;;;;578131;245;24110;-76
2023/09/21 01:15:47;;;;;;;4.93;4.10;;;13.80;99.90;13.00;99935;;;;586816;243;24059;-76
2023/09/21 01:18:16;;;;;;;4.87;3.57;;;13.70;99.90;13.00;99934;;;;577174;245;24097;-76
2023/09/21 01:20:44;;;;;;;4.40;3.77;;;13.70;99.90;12.90;99937;;;;586567;243;24099;-78
2023/09/21 01:23:18;;;;;;;4.13;3.73;;;13.60;99.90;12.80;99926;;;;586528;243;24082;-77
2023/09/21 01:25:42;;;;;;;5.00;4.00;;;13.50;99.90;12.80;99937;;;;577303;245;24143;-77
2023/09/21 01:28:13;;;;;;;4.80;4.30;;;13.40;99.90;12.70;99938;;;;577335;245;24071;-79
2023/09/21 01:30:38;;;;;;;6.37;3.97;;;13.40;99.90;12.70;99929;;;;577221;245;24097;-79
2023/09/21 01:33:09;;;;;;;6.33;3.90;;;13.40;99.90;12.70;99938;;;;586717;243;24074;-78
2023/09/21 01:35:34;;;;;;;4.97;4.30;;;13.40;99.90;12.70;99933;;;;586360;245;24055;-77
2023/09/21 01:38:06;;;;;;;10.20;4.43;;;13.40;99.90;12.70;99938;;;;574906;245;24107;-77
2023/09/21 01:40:30;;;;;;;5.10;4.60;;;13.40;99.90;12.70;99928;;;;586512;244;24135;-78
2023/09/21 01:42:58;;;;;;;4.77;4.20;;;13.30;99.90;12.70;99926;;;;586743;243;24064;-78
2023/09/21 01:45:26;;;;;;;4.50;3.60;;;13.30;99.90;12.70;99927;;;;585982;245;24097;-78
2023/09/21 01:47:54;;;;;;;7.67;4.27;;;13.30;99.90;12.70;99932;;;;586207;243;24099;-77
2023/09/21 01:50:24;;;;;;;11.17;4.13;;;13.30;99.90;12.70;99922;;;;586085;239;24078;-78
2023/09/21 01:52:50;;;;;;;4.27;3.90;;;13.30;99.90;12.70;99926;;;;586383;244;24063;-78
2023/09/21 01:55:18;;;;;;;10.77;4.40;;;13.30;99.90;12.70;99927;;;;586133;239;24091;-77
2023/09/21 01:57:47;;;;;;;5.43;4.10;;;13.40;99.90;12.70;99913;;;;586083;243;24120;-76
2023/09/21 02:00:27;;;;;;;11.83;4.87;;;13.30;99.90;12.70;99918;;;;586070;239;24102;-77
2023/09/21 02:02:58;;;;;;;6.00;4.37;;;13.40;99.90;12.70;99920;;;;576624;245;24107;-78
2023/09/21 02:05:24;;;;;;;4.97;4.00;;;13.40;99.90;12.70;99920;;;;577010;245;24111;-78
2023/09/21 02:07:51;;;;;;;5.73;4.77;;;13.30;99.90;12.70;99916;;;;577682;243;24087;-77
2023/09/21 02:10:19;;;;;;;5.43;4.40;;;13.40;99.90;12.80;99917;;;;576845;245;24077;-77
2023/09/21 02:12:56;;;;;;;6.10;3.90;;;13.40;99.90;12.80;99919;;;;586127;243;24058;-78
2023/09/21 02:15:27;;;;;;;4.33;3.93;;;13.40;99.90;12.80;99912;;;;577561;245;24171;-78
2023/09/21 02:17:56;;;;;;;7.10;4.57;;;13.40;99.90;12.70;99914;;;;586474;244;24094;-77
2023/09/21 02:20:27;;;;;;;6.63;4.10;;;13.30;99.90;12.70;99914;;;;587257;243;24074;-77
2023/09/21 02:23:02;;;;;;;4.97;4.33;;;13.30;99.90;12.70;99915;;;;587692;243;24058;-77
2023/09/21 02:25:31;;;;;;;4.57;4.17;;;13.30;99.90;12.70;99905;;;;587301;244;24069;-78
2023/09/21 02:27:59;;;;;;;7.27;4.50;;;13.30;99.90;12.70;99904;;;;578423;245;24047;-77
2023/09/21 02:30:27;;;;;;;4.93;4.53;;;13.30;99.90;12.60;99905;;;;587141;243;24193;-77
2023/09/21 02:32:55;;;;;;;5.10;3.87;;;13.30;99.90;12.60;99897;;;;586765;239;24093;-78
2023/09/21 02:35:27;;;;;;;9.90;4.67;;;13.30;99.90;12.60;99900;;;;577758;245;24089;-78
2023/09/21 02:37:53;;;;;;;7.90;5.03;;;13.30;99.90;12.60;99899;;;;586544;243;24080;-77
2023/09/21 02:40:21;;;;;;;7.43;5.33;;;13.30;99.90;12.60;99912;;;;577038;245;24112;-77
2023/09/21 02:42:52;;;;;;;5.33;4.83;;;13.30;99.90;12.60;99889;;;;577221;245;24086;-79
2023/09/21 02:45:21;;;;;;;7.07;4.93;;;13.20;99.90;12.60;99903;;;;577983;245;24072;-78
2023/09/21 02:47:48;;;;;;;5.63;4.80;;;13.20;99.90;12.60;99904;;;;577837;245;24066;-78
2023/09/21 02:50:20;;;;;;;5.97;4.63;;;13.20;99.90;12.60;99894;;;;586779;243;24109;-77
2023/09/21 02:52:47;;;;;;;7.67;4.70;;;13.20;99.90;12.60;99901;;;;577538;245;24055;-79
2023/09/21 02:55:16;;;;;;;9.67;5.17;;;13.20;99.90;12.60;99897;;;;577806;245;24067;-78
2023/09/21 02:57:46;;;;;;;15.97;5.47;;;13.10;99.90;12.60;99894;;;;577591;245;24060;-78
2023/09/21 03:00:20;;;;;;;6.27;5.37;;;13.20;99.90;12.50;99893;;;;576915;245;24111;-79
2023/09/21 03:02:39;;;;;;;6.83;4.57;;;13.20;99.90;12.50;99894;;;;576794;245;24066;-77
2023/09/21 03:05:10;;;;;;;8.50;6.13;;;13.10;99.90;12.50;99892;;;;586066;243;24121;-77
2023/09/21 03:07:38;;;;;;;8.97;5.90;;;13.10;99.90;12.50;99897;;;;586307;245;24070;-77
2023/09/21 03:10:09;;;;;;;5.73;5.07;;;13.10;99.90;12.40;99893;;;;586328;239;24076;-77
2023/09/21 03:12:32;;;;;;;7.80;5.30;;;13.10;99.90;12.40;99890;;;;586103;244;24051;-78
2023/09/21 03:15:00;;;;;;;7.23;4.83;;;13.00;99.90;12.40;99891;;;;586511;239;24066;-76
2023/09/21 03:17:29;;;;;;;11.30;5.97;;;13.00;99.90;12.40;99891;;;;586542;239;24067;-77
2023/09/21 03:19:56;;;;;;;9.73;5.43;;;13.00;99.90;12.30;99884;;;;586002;245;24095;-78
2023/09/21 03:22:24;;;;;;;10.30;5.73;;;13.00;99.90;12.30;99885;;;;585932;240;24069;-78
2023/09/21 03:24:54;;;;;;;7.30;4.80;;;13.00;99.90;12.30;99885;;;;586235;239;24055;-80
2023/09/21 03:27:21;;;;;;;4.93;4.43;;;13.00;99.90;12.30;99874;;;;586056;245;24079;-77
2023/09/21 03:29:49;;;;;;;10.63;5.80;;;13.00;99.90;12.30;99872;;;;586451;239;24092;-79
2023/09/21 03:32:16;;;;;;;6.43;4.93;;;12.90;99.90;12.30;99884;;;;587078;243;24061;-79
2023/09/21 03:34:44;;;;;;;5.43;4.93;;;12.90;99.90;12.30;99878;;;;587209;243;24069;-78
2023/09/21 03:37:13;;;;;;;5.50;4.90;;;12.90;99.90;12.20;99873;;;;587448;243;24160;-78
2023/09/21 03:39:42;;;;;;;10.33;4.90;;;12.90;99.90;12.20;99876;;;;587255;239;24070;-77
2023/09/21 03:42:07;;;;;;;10.20;5.40;;;12.80;99.90;12.10;99871;;;;575091;245;24093;-78
2023/09/21 03:44:36;;;;;;;7.03;5.00;;;12.80;99.90;12.10;99870;;;;587026;239;24077;-79
2023/09/21 03:47:04;;;;;;;9.47;4.70;;;12.80;99.90;12.10;99868;;;;586904;239;24264;-78
2023/09/21 03:49:34;;;;;;;7.73;5.77;;;12.80;99.90;12.10;99861;;;;586475;244;24077;-78
2023/09/21 03:51:59;;;;;;;9.60;5.37;;;12.80;99.90;12.10;99853;;;;586104;239;24059;-78
2023/09/21 03:54:28;;;;;;;10.33;5.60;;;12.80;99.90;12.10;99863;;;;586367;239;24097;-79
2023/09/21 03:56:56;;;;;;;8.53;5.77;;;12.80;99.90;12.10;99856;;;;586387;243;24093;-78
2023/09/21 03:59:25;;;;;;;9.97;5.90;;;12.80;99.90;12.20;99853;;;;586745;239;24069;-78
2023/09/21 04:01:52;;;;;;;11.17;6.47;;;12.80;99.90;12.20;99850;;;;586412;243;24051;-77
2023/09/21 04:04:20;;;;;;;7.07;5.07;;;12.80;99.90;12.20;99846;;;;586341;243;24071;-77
2023/09/21 04:06:50;;;;;;;8.17;5.90;;;12.80;99.90;12.20;99853;;;;586703;239;24071;-77
2023/09/21 04:09:18;;;;;;;11.07;6.00;;;12.80;99.90;12.20;99857;;;;586096;243;24046;-77
2023/09/21 04:11:46;;;;;;;8.17;4.93;;;12.80;99.90;12.10;99851;;;;586013;239;24059;-77
2023/09/21 04:14:13;;;;;;;11.53;4.93;;;12.80;99.90;12.10;99847;;;;586129;243;24047;-77
2023/09/21 04:16:41;;;;;;;6.93;6.27;;;12.80;99.90;12.10;99851;;;;586080;239;24050;-76
2023/09/21 04:19:10;;;;;;;8.63;6.50;;;12.80;99.90;12.10;99847;;;;586161;239;24058;-77
2023/09/21 04:21:37;;;;;;;6.87;5.30;;;12.80;99.90;12.10;99848;;;;586446;244;24069;-77
2023/09/21 04:24:08;;;;;;;8.53;5.53;;;12.80;99.90;12.10;99845;;;;586501;243;25096;-78
2023/09/21 04:26:33;;;;;;;7.90;6.00;;;12.70;99.90;12.10;99848;;;;577445;245;24059;-76
2023/09/21 04:29:02;;;;;;;7.73;5.80;;;12.70;99.90;12.10;99851;;;;577527;245;24042;-77
2023/09/21 04:31:29;;;;;;;14.50;6.33;;;12.70;99.90;12.10;99836;;;;586402;245;24092;-78
2023/09/21 04:33:56;;;;;;;7.43;5.83;;;12.70;99.90;12.10;99846;;;;586328;239;24045;-78
2023/09/21 04:36:27;;;;;;;9.87;6.57;;;12.70;99.90;12.10;99843;;;;586492;243;24084;-77
2023/09/21 04:38:55;;;;;;;11.27;6.73;;;12.70;99.90;12.10;99845;;;;585992;239;24076;-78
2023/09/21 04:41:23;;;;;;;9.40;6.93;;;12.80;99.90;12.10;99842;;;;586195;243;24058;-78
2023/09/21 04:43:51;;;;;;;13.00;6.60;;;12.80;99.90;12.10;99839;;;;587069;243;24113;-77
2023/09/21 04:46:23;;;;;;;10.33;6.47;;;12.70;99.90;12.10;99840;;;;587219;243;24085;-76
2023/09/21 04:48:50;;;;;;;10.23;6.23;;;12.70;99.90;12.10;99845;;;;586653;244;24073;-77
2023/09/21 04:51:17;;;;;;;8.67;6.50;;;12.70;99.90;12.10;99838;;;;586494;245;24063;-78
2023/09/21 04:53:43;;;;;;;13.57;7.20;;;12.70;99.90;12.10;99850;;;;586743;239;24073;-78
2023/09/21 04:56:11;;;;;;;9.17;6.33;;;12.70;99.90;12.10;99853;;;;586688;243;24069;-77
2023/09/21 04:58:40;;;;;;;11.03;7.30;;;12.70;99.90;12.10;99842;;;;586781;243;24089;-77
2023/09/21 05:01:10;;;;;;;10.47;7.40;;;12.80;99.90;12.10;99850;;;;586677;239;24056;-77
2023/09/21 05:03:36;;;;;;;11.90;7.43;;;12.80;99.90;12.10;99842;;;;586139;244;24096;-77
2023/09/21 05:06:07;;;;;;;9.07;6.83;;;12.80;99.90;12.20;99842;;;;586690;244;24048;-79
2023/09/21 05:08:36;;;;;;;10.67;7.30;;;12.80;99.90;12.20;99833;;;;586762;242;24061;-78
2023/09/21 05:11:03;;;;;;;13.37;7.90;;;12.80;99.90;12.30;99822;;;;586388;239;24083;-77
2023/09/21 05:13:31;;;;;;;11.57;8.20;;;12.90;99.90;12.30;99834;;;;576930;245;24136;-77
2023/09/21 05:15:59;;;;;;;12.37;7.70;;;12.90;99.90;12.40;99827;;;;574982;243;24066;-77
2023/09/21 05:18:29;;;;;;;11.77;7.93;;;13.00;99.90;12.40;99829;;;;586355;243;24083;-76
2023/09/21 05:20:55;;;;;;;19.23;9.10;;;13.10;99.90;12.60;99826;;;;584872;245;24067;-79
2023/09/21 05:23:23;;;;;;;12.43;8.53;;;13.30;99.90;12.80;99828;;;;586015;244;24068;-77
2023/09/21 05:25:51;;;;;;;11.00;7.13;;;13.50;99.90;12.90;99828;;;;586046;239;24054;-77
2023/09/21 05:28:20;;;;;;;15.90;8.67;;;13.50;99.90;13.00;99837;;;;586205;243;24083;-79
2023/09/21 05:30:47;;;;;;;11.77;7.13;;;13.60;99.90;13.10;99838;;;;586165;243;24105;-79
2023/09/21 05:33:15;;;;;;;13.97;8.30;;;13.70;99.90;14.00;99835;;;;586056;243;24185;-79
2023/09/21 05:35:43;;;;;;;10.23;7.43;;;14.40;99.90;15.30;99842;;;;586146;239;24063;-77
2023/09/21 05:38:12;;;;;;;12.90;7.63;;;17.00;99.90;16.80;99838;;;;576771;245;24077;-78
2023/09/21 05:40:41;;;;;;;13.50;8.13;;;18.50;99.90;18.30;99851;;;;586535;243;24106;-78
2023/09/21 05:43:09;;;;;;;6.60;6.00;;;18.40;99.90;19.70;99860;;;;586447;243;24058;-78
2023/09/21 05:45:36;;;;;;;8.47;6.10;;;19.90;99.90;21.00;99862;;;;586534;243;23080;-79
2023/09/21 05:48:07;;;;;;;9.57;5.77;;;21.30;99.90;22.60;99852;;;;586507;243;24101;-79
2023/09/21 05:50:32;;;;;;;10.17;5.53;;;22.80;99.90;24.10;99852;;;;577456;245;24038;-80
2023/09/21 05:53:00;;;;;;;9.77;4.87;;;24.30;99.90;25.20;99846;;;;586186;243;24127;-79
2023/09/21 05:55:28;;;;;;;12.20;5.17;;;25.60;99.90;26.40;99843;;;;587081;243;23081;-78
2023/09/21 05:57:56;;;;;;;11.20;5.20;;;26.70;99.90;27.30;99846;;;;587416;239;23060;-79
2023/09/21 06:00:24;;;;;;;7.03;4.87;;;27.70;99.90;28.10;99853;;;;587073;243;23083;-77
2023/09/21 06:02:54;;;;;;;6.30;5.05;;;28.50;98.90;28.90;99847;;;;574974;240;24104;-79
2023/09/21 06:05:20;;;;;;;10.27;5.10;;;29.30;96.20;29.60;99851;;;;586488;244;23116;-79
2023/09/21 06:07:48;;;;;;;9.25;5.40;;;29.90;93.10;30.30;99863;;;;586587;243;23073;-77
2023/09/21 06:10:15;;;;;;;12.57;5.45;;;30.70;89.30;30.60;99859;;;;587023;243;24109;-78
2023/09/21 06:12:43;;;;;;;10.27;5.35;;;31.10;85.70;31.20;99854;;;;586943;239;23075;-78
2023/09/21 06:15:11;;;;;;;6.55;5.35;;;31.60;83.20;31.80;99861;;;;586852;243;23125;-78
2023/09/21 06:17:40;;;;;;;9.65;5.68;;;32.20;79.90;32.50;99859;;;;586728;243;23064;-77
2023/09/21 06:20:11;;;;;;;14.15;5.43;;;32.80;76.80;33.20;99863;;;;586606;245;23061;-78
2023/09/21 06:22:37;;;;;;;11.15;5.50;;;33.40;72.60;33.70;99869;;;;577582;245;23076;-78
2023/09/21 06:25:03;;;;;;;8.40;5.22;;;33.90;69.40;34.10;99868;;;;586248;239;23071;-78
2023/09/21 06:27:31;;;;;;;9.38;5.65;;;34.40;67.40;34.50;99870;;;;577054;244;23083;-78
2023/09/21 06:30:00;;;;;;;5.90;4.90;;;35.10;62.80;34.70;99870;;;;586339;239;23141;-79
2023/09/21 06:32:28;;;;;;;5.50;5.05;;;35.00;62.60;34.90;99859;;;;577052;245;23142;-79
2023/09/21 06:34:56;;;;;;;5.90;5.20;;;35.30;61.90;35.10;99861;;;;586128;239;23107;-79
2023/09/21 06:37:24;;;;;;;9.02;5.22;;;35.40;60.20;35.30;99860;;;;586021;243;23064;-78
2023/09/21 06:39:51;;;;;;;6.90;5.37;;;35.60;59.50;35.60;99863;;;;586508;243;23101;-78
2023/09/21 06:42:20;;;;;;;8.15;5.68;;;35.80;58.90;36.00;99862;;;;586489;243;24087;-78
2023/09/21 06:44:53;;;;;;;7.22;5.10;;;36.20;58.30;36.40;99867;;;;586503;243;23057;-78
2023/09/21 06:47:16;;;;;;;8.15;5.55;;;36.70;57.40;36.60;99861;;;;586016;244;23097;-78
2023/09/21 06:49:43;;;;;;;10.20;5.55;;;36.90;56.40;36.80;99865;;;;577494;244;23069;-77
2023/09/21 06:52:11;;;;;;;10.95;5.18;;;37.10;56.30;36.70;99870;;;;586395;245;23112;-79
2023/09/21 06:54:40;;;;;;;6.30;5.12;;;37.10;55.00;36.50;99879;;;;586072;243;23084;-79
2023/09/21 06:57:08;;;;;;;11.57;5.07;;;36.90;55.60;37.00;99884;;;;586151;239;23064;-79
2023/09/21 06:59:38;;;;;;;6.57;5.20;;;37.20;55.40;37.20;99876;;;;586060;243;23103;-79
2023/09/21 07:02:06;;;;;;;8.35;5.80;;;37.60;54.50;37.40;99873;;;;576721;245;24121;-79
2023/09/21 07:04:34;;;;;;;15.68;5.87;;;37.60;54.50;37.90;99873;;;;577692;243;23092;-79
2023/09/21 07:07:06;;;;;;;7.10;4.80;;;38.40;54.00;38.10;99881;;;;577886;245;23067;-77
2023/09/21 07:09:31;;;;;;;5.90;5.28;;;38.30;53.30;38.40;99889;;;;577550;245;23075;-78
2023/09/21 07:11:59;;;;;;;8.02;4.93;;;38.60;52.60;38.80;99899;;;;587366;239;23171;-78
2023/09/21 07:14:27;;;;;;;9.45;5.05;;;39.00;52.30;39.20;99889;;;;587328;243;23079;-78
2023/09/21 07:16:58;;;;;;;5.62;5.05;;;39.30;50.80;39.00;99889;;;;587054;239;23066;-79
2023/09/21 07:19:24;;;;;;;7.55;5.12;;;39.40;50.70;39.30;99893;;;;581501;245;35205;-79
2023/09/21 07:21:52;;;;;;;5.47;4.93;;;39.50;50.50;39.30;99891;;;;587054;243;23113;-79
2023/09/21 07:24:20;;;;;;;8.95;5.30;;;39.60;50.20;39.50;99887;;;;587013;243;23084;-79
2023/09/21 07:26:49;;;;;;;6.37;4.75;;;39.70;49.80;39.50;99879;;;;586516;243;23073;-79
2023/09/21 07:29:17;;;;;;;5.43;4.32;;;39.60;49.70;39.50;99888;;;;586369;243;23153;-79
2023/09/21 07:31:44;;;;;;;6.50;4.68;;;39.60;49.70;39.90;99894;;;;586729;243;23064;-80
2023/09/21 07:34:12;;;;;;;5.68;4.30;;;40.00;50.00;40.60;99890;;;;586485;243;23113;-79
2023/09/21 07:36:40;;;;;;;6.62;4.32;;;40.60;49.20;41.20;99891;;;;586297;243;23060;-79
2023/09/21 07:39:11;;;;;;;4.80;4.05;;;41.30;48.20;41.70;99889;;;;586472;243;23065;-78
2023/09/21 07:41:40;;;;;;;6.80;4.25;;;41.80;47.90;42.30;99880;;;;586646;245;23076;-79
2023/09/21 07:44:08;;;;;;;6.60;3.87;;;42.40;47.20;42.60;99876;;;;586389;245;23069;-79
2023/09/21 07:46:38;;;;;;;9.60;5.00;;;42.80;45.80;42.50;99879;;;;576182;245;23142;-79
2023/09/21 07:49:09;;;;;;;8.95;3.83;;;42.90;45.60;42.50;99881;;;;586615;244;23061;-79
2023/09/21 07:51:37;;;;;;;8.65;3.83;;;42.90;45.60;42.60;99878;;;;574444;245;23076;-79
2023/09/21 07:54:06;;;;;;;6.60;4.47;;;42.90;45.30;42.50;99881;;;;577533;243;23064;-79
2023/09/21 07:56:36;;;;;;;5.18;4.50;;;42.80;45.40;42.50;99881;;;;577164;245;23107;-79
2023/09/21 07:59:01;;;;;;;6.75;4.10;;;42.90;45.00;42.30;99869;;;;585869;240;23216;-79
2023/09/21 08:01:29;;;;;;;4.95;4.37;;;42.80;45.20;42.50;99878;;;;586254;243;23103;-79
2023/09/21 08:03:57;;;;;;;4.80;4.30;;;42.90;45.00;42.60;99878;;;;585992;245;23073;-79
2023/09/21 08:06:28;;;;;;;4.85;4.45;;;43.10;44.60;42.30;99879;;;;586057;243;23079;-79
2023/09/21 08:08:52;;;;;;;8.45;4.72;;;42.90;44.90;42.10;99882;;;;585887;245;23113;-79
2023/09/21 08:11:21;;;;;;;5.05;4.47;;;42.70;45.10;41.80;99874;;;;586488;243;23110;-79
2023/09/21 08:13:48;;;;;;;5.18;3.70;;;42.40;45.10;41.20;99877;;;;586529;239;23078;-79
2023/09/21 08:16:16;;;;;;;4.47;4.07;;;42.10;45.10;40.40;99873;;;;586454;244;23065;-79
2023/09/21 08:18:45;;;;;;;6.85;4.03;;;41.40;45.70;40.30;99869;;;;587584;243;23055;-78
2023/09/21 08:21:14;;;;;;;5.97;4.18;;;41.30;46.00;40.00;99867;;;;582610;239;35177;-79
2023/09/21 08:23:42;;;;;;;5.32;3.90;;;40.70;46.70;39.90;99865;;;;587322;243;23144;-78
2023/09/21 08:26:08;;;;;;;7.90;3.50;;;40.60;46.70;40.10;99870;;;;587314;239;23065;-79
2023/09/21 08:28:36;;;;;;;4.50;3.67;;;40.70;46.80;40.60;99865;;;;574985;245;23123;-80
2023/09/21 08:31:04;;;;;;;9.70;3.35;;;41.10;46.80;41.10;99860;;;;586757;239;23090;-79
2023/09/21 08:33:33;;;;;;;3.50;3.20;;;42.10;46.00;41.60;99866;;;;574846;244;23052;-79
2023/09/21 08:36:01;;;;;;;3.92;3.10;;;42.10;45.90;42.10;99864;;;;586153;240;23066;-79
2023/09/21 08:38:30;;;;;;;4.70;2.80;;;42.70;45.00;42.50;99861;;;;586417;243;23065;-79
2023/09/21 08:40:57;;;;;;;3.60;3.30;;;43.20;44.50;42.90;99863;;;;586692;243;23093;-79
2023/09/21 08:43:25;;;;;;;11.43;3.67;;;43.70;44.00;42.70;99861;;;;586721;243;23061;-79
2023/09/21 08:45:52;;;;;;;3.35;3.05;;;43.70;44.40;43.10;99859;;;;583312;246;23081;-79
2023/09/21 08:48:23;;;;;;;3.42;3.12;;;44.10;43.10;42.90;99855;;;;577869;245;24087;-79
2023/09/21 08:50:51;;;;;;;4.55;2.83;;;44.10;43.00;43.20;99858;;;;577841;245;23057;-79
2023/09/21 08:53:23;;;;;;;3.42;2.62;;;44.10;42.80;42.90;99855;;;;586760;243;23082;-79
2023/09/21 08:55:52;;;;;;;7.28;2.92;;;43.80;43.10;42.60;99858;;;;577015;245;23136;-78
2023/09/21 08:58:23;;;;;;;5.37;2.67;;;43.80;43.00;43.30;99855;;;;577122;243;23083;-79
2023/09/21 09:00:56;;;;;;;8.50;2.90;;;44.20;43.00;43.70;99851;;;;576849;245;23076;-79
2023/09/21 09:03:27;;;;;;;2.72;2.50;;;44.80;42.20;43.90;99844;;;;582313;246;23134;-78
2023/09/21 09:05:58;;;;;;;4.32;2.78;;;45.00;41.80;44.40;99842;;;;574484;245;23092;-78
2023/09/21 09:08:27;;;;;;;4.72;2.85;;;46.10;41.00;45.00;99835;;;;577054;245;23087;-79
2023/09/21 09:10:55;;;;;;;3.50;2.42;;;46.40;40.10;45.10;99844;;;;586103;245;24161;-80
2023/09/21 09:13:35;;;;;;;3.78;2.45;;;46.30;40.00;44.30;99829;;;;586478;243;23065;-79
2023/09/21 09:16:03;;;;;;;3.33;2.80;;;45.10;40.90;43.30;99843;;;;586440;245;23093;-79
2023/09/21 09:18:31;;;;;;;2.87;2.65;;;45.00;40.80;42.80;99840;;;;577441;245;23068;-79
2023/09/21 09:20:59;;;;;;;2.60;2.50;;;44.50;41.30;42.30;99836;;;;577471;245;23064;-79
2023/09/21 09:23:27;;;;;;;3.92;2.45;;;44.00;41.90;41.50;99835;;;;586474;239;23068;-78
2023/09/21 09:25:55;;;;;;;6.07;2.92;;;42.10;43.70;39.80;99832;;;;586019;243;23095;-78
2023/09/21 09:28:24;;;;;;;2.75;2.55;;;40.60;45.60;38.20;99831;;;;586184;243;23075;-78
2023/09/21 09:30:52;;;;;;;3.37;3.05;;;40.50;45.50;36.90;99824;;;;587816;239;23090;-78
2023/09/21 09:33:25;;;;;;;5.05;3.30;;;39.10;46.90;36.50;99824;;;;578658;245;24102;-78
2023/09/21 09:35:48;;;;;;;5.30;3.05;;;37.70;49.70;36.30;99819;;;;577907;245;23089;-79
2023/09/21 09:38:17;;;;;;;4.12;3.30;;;37.70;49.10;36.10;99809;;;;587280;243;23075;-79
2023/09/21 09:40:47;;;;;;;3.62;2.92;;;37.30;49.70;35.60;99802;;;;587016;239;25178;-78
2023/09/21 09:43:12;;;;;;;8.73;3.83;;;36.80;50.00;35.30;99798;;;;574821;243;23096;-77
2023/09/21 09:45:43;;;;;;;6.32;3.00;;;36.40;51.50;35.20;99804;;;;577259;245;23075;-77
2023/09/21 09:48:11;;;;;;;5.68;2.87;;;36.10;51.30;35.30;99799;;;;577173;245;23076;-79
2023/09/21 09:50:39;;;;;;;4.97;2.80;;;36.10;51.50;35.00;99805;;;;586023;245;24118;-78
2023/09/21 09:53:10;;;;;;;4.30;2.50;;;36.00;51.60;35.00;99793;;;;577228;244;23115;-78
2023/09/21 09:55:35;;;;;;;3.80;2.85;;;35.90;51.80;34.60;99783;;;;576777;245;24136;-78
2023/09/21 09:58:09;;;;;;;3.30;2.53;;;35.60;52.10;34.40;99786;;;;586278;243;23088;-78
2023/09/21 10:00:35;;;;;;;5.12;2.60;;;35.30;53.20;34.40;99788;;;;577427;245;23083;-77
2023/09/21 10:03:05;;;;;;;5.10;2.87;;;35.30;53.00;34.40;99790;;;;578388;243;23077;-77
2023/09/21 10:05:34;;;;;;;4.07;2.80;;;35.30;53.00;34.00;99779;;;;577145;245;23139;-78
2023/09/21 10:08:03;;;;;;;2.92;2.42;;;35.00;53.30;33.90;99773;;;;585544;245;23081;-77
2023/09/21 10:10:27;;;;;;;3.10;2.40;;;34.80;53.80;33.40;99773;;;;585521;245;23091;-78
2023/09/21 10:12:55;;;;;;;3.75;2.53;;;34.40;54.80;32.80;99771;;;;576862;245;23100;-78
2023/09/21 10:15:22;;;;;;;4.40;2.53;;;33.80;55.50;31.90;99766;;;;575814;245;23091;-78
2023/09/21 10:17:51;;;;;;;6.68;2.80;;;32.00;58.90;30.80;99764;;;;577186;245;23083;-79
2023/09/21 10:20:25;;;;;;;8.10;2.65;;;31.90;58.40;29.90;99762;;;;577102;245;24062;-77
2023/09/21 10:22:57;;;;;;;4.05;2.95;;;31.00;59.80;29.10;99759;;;;577373;245;23120;-78
2023/09/21 10:25:45;;;;;;;3.20;2.30;;;30.10;62.40;28.60;99757;;;;586015;245;23115;-76
2023/09/21 10:28:28;;;;;;;2.45;2.15;;;29.40;64.30;27.80;99748;;;;576666;243;24120;-78
2023/09/21 10:31:09;;;;;;;6.50;2.40;;;28.60;66.50;27.10;99751;;;;577358;245;23088;-78
2023/09/21 10:33:51;;;;;;;7.20;2.28;;;28.00;68.50;26.80;99755;;;;577297;245;23103;-79
2023/09/21 10:36:23;;;;;;;8.37;2.60;;;27.10;72.10;26.50;99750;;;;577302;245;23072;-76
2023/09/21 10:39:09;;;;;;;3.50;2.33;;;26.80;73.50;26.30;99752;;;;586085;244;24122;-77
2023/09/21 10:41:35;;;;;;;3.30;2.67;;;26.70;73.20;26.10;99735;;;;577688;245;23111;-78
2023/09/21 10:44:06;;;;;;;1.80;1.67;;;26.60;74.30;25.90;99748;;;;587382;244;23084;-77
2023/09/21 10:46:37;;;;;;;2.33;2.13;;;26.40;75.50;25.70;99736;;;;587062;244;23169;-77
2023/09/21 10:49:04;;;;;;;10.03;2.20;;;26.20;76.30;25.50;99735;;;;578079;245;23090;-76
2023/09/21 10:51:35;;;;;;;2.47;1.67;;;26.00;77.90;25.40;99728;;;;577980;245;24074;-77
2023/09/21 10:54:04;;;;;;;2.83;2.20;;;25.70;78.90;25.20;99718;;;;586474;243;23087;-77
2023/09/21 10:56:32;;;;;;;2.43;1.80;;;25.70;78.90;25.10;99714;;;;586866;243;24066;-78
2023/09/21 10:59:03;;;;;;;3.33;1.90;;;25.60;79.40;25.10;99720;;;;586769;243;23090;-78
2023/09/21 11:01:29;;;;;;;4.40;2.33;;;25.40;81.20;25.00;99717;;;;577070;245;23181;-78
2023/09/21 11:03:58;;;;;;;2.80;2.27;;;25.40;81.20;25.00;99706;;;;586034;243;23161;-80
2023/09/21 11:06:25;;;;;;;9.10;2.93;;;25.40;81.60;24.90;99704;;;;586447;245;23073;-77
2023/09/21 11:08:54;;;;;;;3.03;2.20;;;25.40;82.40;24.90;99715;;;;577997;243;24112;-78
2023/09/21 11:11:25;;;;;;;4.57;2.47;;;25.30;82.60;24.80;99700;;;;586696;243;23079;-79
2023/09/21 11:13:50;;;;;;;7.90;2.23;;;25.20;83.00;24.80;99694;;;;577284;245;23131;-78
2023/09/21 11:16:21;;;;;;;4.23;2.50;;;25.20;83.80;24.70;99698;;;;577447;245;24135;-78
2023/09/21 11:18:55;;;;;;;8.63;2.80;;;25.20;84.10;24.70;99695;;;;577376;245;23091;-78
2023/09/21 11:21:23;;;;;;;3.77;2.70;;;25.10;84.50;24.60;99684;;;;577280;245;24086;-77
2023/09/21 11:23:55;;;;;;;5.50;2.47;;;25.10;85.30;24.70;99678;;;;586299;243;23145;-78